.
WxDataArchive / Data Records for 2013-04-23
2013-04-22 April 2013 2013-04-24

Data Records for Tuesday, 23 April 2013

Time	Temp	Chill	HIndex	Humid	Dewpt	 Wind 	HiWind	WindDir	Rain 	Barom 
-----	----	-----	------	-----	-----	------	------	-------	-----	----- 
00:00	47.6	47.6	47.6	67	37.2	2	5	90	0.00	30.135 
00:05	47.4	47.4	47.4	67	37.0	1	3	90	0.00	30.135 
00:10	47.3	47.3	47.3	68	37.3	1	3	90	0.00	30.135 
00:15	47.1	47.1	47.1	68	37.1	1	3	90	0.00	30.131 
00:20	47.0	47.0	47.0	68	37.0	1	3	90	0.00	30.131 
00:25	46.8	46.8	46.8	69	37.2	1	3	90	0.00	30.131 
00:30	46.7	46.7	46.7	69	37.1	1	4	90	0.00	30.131 
00:35	46.5	46.5	46.5	69	36.9	0	1	90	0.00	30.131 
00:40	46.4	46.4	46.4	69	36.8	1	3	90	0.00	30.131 
00:45	46.2	46.2	46.2	70	37.0	0	2	90	0.00	30.133 
00:50	46.1	46.1	46.1	70	36.9	1	3	90	0.00	30.133 
00:55	46.0	46.0	46.0	70	36.8	1	2	90	0.00	30.133 
01:00	45.7	45.7	45.7	71	36.8	0	2	90	0.00	30.129 
01:05	45.7	45.7	45.7	71	36.8	1	3	90	0.00	30.129 
01:10	45.5	45.5	45.5	71	36.7	0	2	90	0.00	30.129 
01:15	45.4	45.4	45.4	71	36.6	0	2	90	0.00	30.127 
01:20	45.2	45.2	45.2	71	36.4	0	2	90	0.00	30.127 
01:25	45.1	45.1	45.1	72	36.6	0	2	90	0.00	30.127 
01:30	44.9	44.9	44.9	72	36.4	0	1	90	0.00	30.123 
01:35	44.8	44.8	44.8	72	36.3	0	2	90	0.00	30.123 
01:40	44.6	44.6	44.6	72	36.1	0	2	90	0.00	30.123 
01:45	44.6	44.6	44.6	73	36.5	0	1	90	0.00	30.116 
01:50	44.5	44.5	44.5	73	36.4	0	2	90	0.00	30.116 
01:55	44.3	44.3	44.3	73	36.2	0	2	90	0.00	30.116 
02:00	44.2	44.2	44.2	73	36.1	0	2	90	0.00	30.113 
02:05	44.2	44.2	44.2	73	36.1	0	1	90	0.00	30.113 
02:10	44.1	44.1	44.1	74	36.4	0	1	90	0.00	30.113 
02:15	43.9	43.9	43.9	74	36.2	0	2	90	0.00	30.108 
02:20	43.8	43.8	43.8	74	36.1	0	2	90	0.00	30.108 
02:25	43.8	43.8	43.8	74	36.1	0	2	90	0.00	30.108 
02:30	43.6	43.6	43.6	75	36.2	0	2	90	0.00	30.099 
02:35	43.5	43.5	43.5	75	36.1	0	1	90	0.00	30.099 
02:40	43.3	43.3	43.3	75	35.9	0	1	90	0.00	30.099 
02:45	43.2	43.2	43.2	75	35.8	0	1	90	0.00	30.096 
02:50	43.1	43.1	43.1	76	36.1	0	1	90	0.00	30.096 
02:55	42.9	42.9	42.9	76	35.9	0	1	90	0.00	30.096 
03:00	42.8	42.8	42.8	76	35.8	0	0	---	0.00	30.094 
03:05	42.5	42.5	42.5	77	35.8	0	1	90	0.00	30.094 
03:10	42.3	42.3	42.3	77	35.6	0	0	---	0.00	30.094 
03:15	42.2	42.2	42.2	77	35.5	0	0	---	0.00	30.089 
03:20	41.9	41.9	41.9	77	35.2	0	0	---	0.00	30.089 
03:25	41.8	41.8	41.8	78	35.5	0	1	90	0.00	30.089 
03:30	41.5	41.5	41.5	79	35.5	0	0	---	0.00	30.085 
03:35	41.3	41.3	41.3	79	35.3	0	1	90	0.00	30.085 
03:40	41.2	41.2	41.2	79	35.2	0	0	---	0.00	30.085 
03:45	41.1	41.1	41.1	80	35.4	0	0	---	0.00	30.084 
03:50	41.1	41.1	41.1	81	35.7	0	0	---	0.00	30.084 
03:55	40.9	40.9	40.9	80	35.2	0	0	---	0.00	30.084 
04:00	40.8	40.8	40.8	80	35.1	0	0	---	0.00	30.084 
04:05	40.6	40.6	40.6	81	35.2	0	0	---	0.00	30.084 
04:10	40.6	40.6	40.6	81	35.2	0	0	---	0.00	30.084 
04:15	40.6	40.6	40.6	82	35.5	0	0	---	0.00	30.081 
04:20	40.6	40.6	40.6	82	35.5	0	1	90	0.00	30.081 
04:25	40.8	40.8	40.8	82	35.7	0	0	---	0.00	30.081 
04:30	40.9	40.9	40.9	82	35.8	0	1	90	0.00	30.074 
04:35	41.1	41.1	41.1	82	36.0	0	0	---	0.00	30.074 
04:40	41.1	41.1	41.1	82	36.0	0	0	---	0.00	30.074 
04:45	41.1	41.1	41.1	82	36.0	0	0	---	0.00	30.065 
04:50	40.9	40.9	40.9	82	35.8	0	1	90	0.00	30.065 
04:55	40.9	40.9	40.9	82	35.8	0	1	90	0.00	30.065 
05:00	41.2	41.2	41.2	82	36.1	0	2	90	0.00	30.051 
05:05	41.3	41.3	41.3	82	36.2	0	0	---	0.00	30.051 
05:10	41.3	41.3	41.3	82	36.2	0	0	---	0.00	30.051 
05:15	41.5	41.5	41.5	82	36.4	0	1	90	0.00	30.047 
05:20	41.5	41.5	41.5	82	36.4	0	0	---	0.00	30.047 
05:25	41.5	41.5	41.5	82	36.4	0	0	---	0.00	30.047 
05:30	41.5	41.5	41.5	82	36.4	0	0	---	0.00	30.042 
05:35	41.5	41.5	41.5	82	36.4	0	2	90	0.00	30.042 
05:40	41.5	41.5	41.5	82	36.4	0	1	90	0.00	30.042 
05:45	41.3	41.3	41.3	82	36.2	0	1	90	0.00	30.033 
05:50	41.2	41.2	41.2	82	36.1	0	0	---	0.00	30.033 
05:55	41.2	41.2	41.2	82	36.1	0	1	90	0.00	30.033 
06:00	41.1	41.1	41.1	83	36.3	0	0	---	0.00	30.033 
06:05	40.9	40.9	40.9	83	36.1	0	0	---	0.00	30.033 
06:10	40.8	40.8	40.8	83	36.0	0	0	---	0.00	30.033 
06:15	40.6	40.6	40.6	83	35.8	0	0	---	0.00	30.041 
06:20	40.5	40.5	40.5	83	35.8	0	0	---	0.00	30.041 
06:25	40.5	40.5	40.5	84	36.1	0	0	---	0.00	30.041 
06:30	40.5	40.5	40.5	84	36.1	0	0	---	0.00	30.050 
06:35	40.5	40.5	40.5	84	36.1	0	0	---	0.00	30.050 
06:40	40.5	40.5	40.5	84	36.1	0	0	---	0.00	30.050 
06:45	40.3	40.3	40.3	84	35.9	0	0	---	0.00	30.054 
06:50	40.2	40.2	40.2	84	35.8	0	0	---	0.00	30.054 
06:55	40.1	40.1	40.1	84	35.7	0	0	---	0.00	30.054 
07:00	40.1	40.1	40.1	85	36.0	0	0	---	0.00	30.045 
07:05	40.1	40.1	40.1	86	36.3	0	0	---	0.00	30.045 
07:10	40.3	40.3	40.3	86	36.5	0	1	90	0.00	30.045 
07:15	40.6	40.6	40.6	86	36.7	0	1	90	0.00	30.035 
07:20	41.2	41.2	41.2	86	37.3	0	1	90	0.00	30.035 
07:25	41.5	41.5	41.5	86	37.6	0	0	---	0.00	30.035 
07:30	41.6	41.6	41.6	85	37.4	0	0	---	0.00	30.049 
07:35	41.8	41.8	41.8	85	37.6	0	0	---	0.00	30.049 
07:40	41.9	41.9	41.9	85	37.7	0	0	---	0.00	30.049 
07:45	42.2	42.2	42.2	86	38.3	0	0	---	0.00	30.047 
07:50	42.5	42.5	42.5	85	38.3	0	0	---	0.00	30.047 
07:55	42.8	42.8	42.8	85	38.6	0	0	---	0.00	30.047 
08:00	43.2	43.2	43.2	84	38.7	0	0	---	0.00	30.039 
08:05	43.8	43.8	43.8	85	39.6	0	0	---	0.00	30.039 
08:10	45.1	45.1	45.1	84	40.6	0	1	90	0.00	30.039 
08:15	46.4	46.4	46.4	81	40.9	0	1	90	0.00	30.036 
08:20	47.6	47.6	47.6	79	41.4	0	1	90	0.00	30.036 
08:25	48.6	48.6	48.6	76	41.4	0	2	90	0.00	30.036 
08:30	49.5	49.5	49.5	75	41.9	0	1	90	0.00	30.041 
08:35	50.5	50.5	50.5	75	42.9	0	0	---	0.00	30.041 
08:40	51.4	51.4	51.4	74	43.4	0	1	90	0.00	30.041 
08:45	51.6	51.6	51.6	71	42.5	0	1	90	0.00	30.045 
08:50	51.9	51.9	51.9	71	42.8	0	1	90	0.00	30.045 
08:55	52.2	52.2	52.2	70	42.7	0	1	90	0.00	30.045 
09:00	52.8	52.8	52.8	68	42.5	1	3	90	0.00	30.041 
09:05	53.5	53.5	53.5	66	42.4	1	3	90	0.00	30.041 
09:10	54.4	54.4	54.4	64	42.5	1	3	90	0.00	30.041 
09:15	55.4	55.4	55.4	62	42.6	2	5	90	0.00	30.034 
09:20	56.3	56.3	56.3	59	42.2	1	6	112	0.00	30.034 
09:25	56.9	56.9	56.9	57	41.8	1	5	112	0.00	30.034 
09:30	57.5	57.5	57.5	58	42.8	1	3	112	0.00	30.030 
09:35	58.0	58.0	58.0	57	42.9	1	6	112	0.00	30.030 
09:40	58.4	58.4	58.4	56	42.8	0	3	112	0.00	30.030 
09:45	58.9	58.9	58.9	54	42.3	1	3	112	0.00	30.029 
09:50	59.3	59.3	59.3	54	42.7	1	3	90	0.00	30.029 
09:55	59.6	59.6	59.6	53	42.4	1	5	90	0.00	30.029 
10:00	59.8	59.8	59.8	52	42.1	2	5	112	0.00	30.018 
10:05	59.8	59.8	59.8	52	42.1	2	6	90	0.00	30.018 
10:10	60.1	60.1	60.1	53	42.9	1	4	90	0.00	30.018 
10:15	60.2	60.2	60.2	52	42.5	2	7	90	0.00	30.013 
10:20	60.5	60.5	60.5	53	43.3	1	4	112	0.00	30.013 
10:25	60.7	60.7	60.7	51	42.5	1	4	112	0.00	30.013 
10:30	60.9	60.9	60.9	50	42.1	2	5	90	0.00	30.013 
10:35	61.2	61.2	61.2	53	43.9	1	3	112	0.00	30.013 
10:40	61.3	61.3	61.3	52	43.5	1	3	90	0.00	30.013 
10:45	61.5	61.5	61.5	51	43.2	2	5	112	0.00	30.011 
10:50	61.6	61.6	61.6	51	43.3	1	5	270	0.00	30.011 
10:55	62.1	62.1	62.1	52	44.3	1	4	248	0.00	30.011 
11:00	62.4	62.4	62.4	50	43.5	2	6	270	0.00	30.009 
11:05	62.7	62.7	62.7	51	44.3	1	3	248	0.00	30.009 
11:10	63.2	63.2	63.2	49	43.7	2	7	248	0.00	30.009 
11:15	63.7	63.7	63.7	50	44.7	2	7	248	0.00	30.009 
11:20	64.0	64.0	64.0	48	43.9	1	5	248	0.00	30.009 
11:25	64.3	64.3	64.3	48	44.2	2	5	90	0.00	30.009 
11:30	64.7	64.7	64.7	47	44.0	1	6	270	0.00	30.008 
11:35	65.2	65.2	65.2	46	43.9	2	9	270	0.00	30.008 
11:40	65.6	65.6	65.6	47	44.8	2	6	248	0.00	30.008 
11:45	66.0	66.0	66.0	46	44.6	1	4	22	0.00	29.996 
11:50	66.4	66.4	66.4	46	45.0	1	4	225	0.00	29.996 
11:55	66.8	66.8	66.8	46	45.3	1	7	270	0.00	29.996 
12:00	66.9	66.9	66.9	44	44.3	2	6	270	0.00	29.998 
12:05	67.1	67.1	67.1	44	44.5	2	7	248	0.00	29.998 
12:10	67.4	67.4	67.4	45	45.3	1	5	112	0.00	29.998 
12:15	67.9	67.9	67.9	43	44.6	1	5	248	0.00	29.990 
12:20	68.4	68.4	68.4	45	46.2	1	6	90	0.00	29.990 
12:25	68.6	68.6	68.6	43	45.2	1	5	248	0.00	29.990 
12:30	68.8	68.8	68.8	43	45.4	2	9	68	0.00	29.988 
12:35	68.8	68.8	68.8	43	45.4	2	5	248	0.00	29.988 
12:40	68.9	68.9	68.9	45	46.7	2	6	248	0.00	29.988 
12:45	69.1	69.1	69.1	44	46.3	2	6	270	0.00	29.979 
12:50	69.3	69.3	69.3	42	45.2	3	7	248	0.00	29.979 
12:55	69.4	69.4	69.4	41	44.7	2	6	248	0.00	29.979 
13:00	69.6	69.6	69.6	41	44.8	2	6	225	0.00	29.972 
13:05	69.4	69.4	69.4	43	45.9	2	10	248	0.00	29.972 
13:10	69.1	69.1	69.1	44	46.3	2	7	248	0.00	29.972 
13:15	68.8	68.8	68.8	43	45.4	2	7	270	0.00	29.964 
13:20	68.6	68.6	68.6	43	45.2	2	5	248	0.00	29.964 
13:25	68.9	68.9	68.9	43	45.5	2	7	270	0.00	29.964 
13:30	69.3	69.3	69.3	44	46.4	1	7	248	0.00	29.952 
13:35	69.4	69.4	69.4	43	45.9	2	8	90	0.00	29.952 
13:40	69.3	69.3	69.3	43	45.8	3	10	248	0.00	29.952 
13:45	69.1	69.1	69.1	43	45.7	2	5	248	0.00	29.948 
13:50	68.8	68.8	68.8	44	46.0	2	6	248	0.00	29.948 
13:55	68.8	68.8	68.8	43	45.4	2	8	248	0.00	29.948 
14:00	68.8	68.8	68.8	45	46.6	2	5	248	0.00	29.935 
14:05	68.8	68.8	68.8	46	47.2	3	10	90	0.00	29.935 
14:10	68.4	68.4	68.4	48	47.9	3	8	90	0.00	29.935 
14:15	68.4	68.4	68.4	48	47.9	1	6	225	0.00	29.933 
14:20	68.8	68.8	68.8	48	48.3	2	9	248	0.00	29.933 
14:25	68.6	68.6	68.6	47	47.6	2	6	112	0.00	29.933 
14:30	68.3	68.3	68.3	46	46.7	2	7	248	0.00	29.927 
14:35	67.9	67.9	67.9	48	47.5	2	4	270	0.00	29.927 
14:40	67.9	67.9	67.9	49	48.0	1	4	248	0.00	29.927 
14:45	68.1	68.1	68.1	50	48.7	1	4	270	0.00	29.919 
14:50	68.6	68.6	68.6	48	48.1	2	5	248	0.00	29.919 
14:55	68.8	68.8	68.8	47	47.7	3	7	248	0.00	29.919 
15:00	68.9	68.9	68.9	46	47.3	3	6	248	0.00	29.916 
15:05	68.9	68.9	68.9	45	46.7	2	7	248	0.00	29.916 
15:10	68.9	68.9	68.9	47	47.8	2	4	248	0.00	29.916 
15:15	68.8	68.8	68.8	46	47.2	2	7	248	0.00	29.902 
15:20	68.8	68.8	68.8	46	47.2	3	14	45	0.00	29.902 
15:25	68.6	68.6	68.6	47	47.6	2	6	248	0.00	29.902 
15:30	68.8	68.8	68.8	47	47.7	2	9	68	0.00	29.902 
15:35	68.6	68.6	68.6	46	47.0	3	10	248	0.00	29.902 
15:40	68.4	68.4	68.4	48	47.9	2	6	248	0.00	29.902 
15:45	68.4	68.4	68.4	48	47.9	2	7	338	0.00	29.904 
15:50	68.4	68.4	68.4	48	47.9	2	7	248	0.00	29.904 
15:55	68.4	68.4	68.4	49	48.5	2	7	248	0.00	29.904 
16:00	68.3	68.3	68.3	50	48.9	2	5	248	0.00	29.902 
16:05	68.3	68.3	68.3	49	48.4	2	8	248	0.00	29.902 
16:10	67.9	67.9	67.9	50	48.6	3	7	248	0.00	29.902 
16:15	67.6	67.6	67.6	50	48.3	3	8	248	0.00	29.893 
16:20	67.4	67.4	67.4	51	48.6	3	6	248	0.00	29.893 
16:25	67.3	67.3	67.3	51	48.5	2	6	248	0.00	29.893 
16:30	67.1	67.1	67.1	53	49.4	3	9	248	0.00	29.891 
16:35	66.4	66.4	66.4	60	52.1	4	11	248	0.00	29.891 
16:40	64.2	64.2	64.2	66	52.6	4	11	248	0.01	29.891 
16:45	62.9	62.9	62.9	72	53.7	2	6	248	0.00	29.906 
16:50	62.1	62.1	62.1	73	53.3	2	9	248	0.00	29.906 
16:55	61.2	61.2	61.2	77	53.9	4	13	248	0.04	29.906 
17:00	59.9	59.9	59.9	82	54.4	4	12	248	0.02	29.926 
17:05	59.0	59.0	59.0	85	54.5	3	9	248	0.00	29.926 
17:10	58.4	58.4	58.4	87	54.5	3	7	248	0.01	29.926 
17:15	58.1	58.1	58.1	88	54.6	2	5	270	0.00	29.926 
17:20	58.1	58.1	58.1	88	54.6	2	5	248	0.00	29.926 
17:25	58.0	58.0	58.0	89	54.8	2	5	248	0.01	29.926 
17:30	58.0	58.0	58.0	89	54.8	2	7	248	0.00	29.927 
17:35	57.8	57.8	57.8	90	54.9	2	6	248	0.00	29.927 
17:40	57.6	57.6	57.6	90	54.7	2	4	248	0.00	29.927 
17:45	57.5	57.5	57.5	90	54.6	1	4	248	0.01	29.915 
17:50	57.5	57.5	57.5	90	54.6	1	5	248	0.00	29.915 
17:55	57.3	57.3	57.3	90	54.4	1	4	248	0.00	29.915 
18:00	57.3	57.3	57.3	91	54.7	1	4	248	0.00	29.909 
18:05	57.3	57.3	57.3	91	54.7	1	3	248	0.00	29.909 
18:10	57.3	57.3	57.3	91	54.7	1	3	270	0.00	29.909 
18:15	57.3	57.3	57.3	91	54.7	1	5	248	0.00	29.901 
18:20	57.2	57.2	57.2	91	54.6	1	4	248	0.00	29.901 
18:25	57.3	57.3	57.3	91	54.7	0	3	248	0.00	29.901 
18:30	57.3	57.3	57.3	91	54.7	0	1	248	0.00	29.894 
18:35	57.3	57.3	57.3	91	54.7	0	1	248	0.00	29.894 
18:40	57.3	57.3	57.3	91	54.7	0	1	248	0.00	29.894 
18:45	57.2	57.2	57.2	91	54.6	0	1	248	0.00	29.884 
18:50	57.2	57.2	57.2	91	54.6	0	3	248	0.00	29.884 
18:55	57.2	57.2	57.2	91	54.6	0	1	248	0.00	29.884 
19:00	57.2	57.2	57.2	91	54.6	0	1	248	0.00	29.880 
19:05	57.2	57.2	57.2	91	54.6	0	1	248	0.00	29.880 
19:10	57.2	57.2	57.2	91	54.6	0	1	248	0.00	29.880 
19:15	57.2	57.2	57.2	91	54.6	0	1	248	0.00	29.873 
19:20	57.0	57.0	57.0	91	54.4	0	1	248	0.01	29.873 
19:25	57.0	57.0	57.0	91	54.4	0	1	248	0.00	29.873 
19:30	57.0	57.0	57.0	91	54.4	0	1	248	0.00	29.873 
19:35	56.9	56.9	56.9	91	54.3	0	0	---	0.00	29.873 
19:40	56.9	56.9	56.9	92	54.6	0	0	---	0.00	29.873 
19:45	56.9	56.9	56.9	92	54.6	0	0	---	0.01	29.876 
19:50	56.9	56.9	56.9	92	54.6	0	0	---	0.01	29.876 
19:55	56.7	56.7	56.7	92	54.4	0	0	---	0.01	29.876 
20:00	56.7	56.7	56.7	92	54.4	0	1	248	0.01	29.865 
20:05	56.7	56.7	56.7	92	54.4	0	0	---	0.01	29.865 
20:10	56.7	56.7	56.7	92	54.4	0	1	248	0.03	29.865 
20:15	56.7	56.7	56.7	92	54.4	0	1	248	0.01	29.854 
20:20	56.6	56.6	56.6	92	54.3	0	0	---	0.02	29.854 
20:25	56.6	56.6	56.6	93	54.6	0	0	---	0.02	29.854 
20:30	56.6	56.6	56.6	93	54.6	0	1	248	0.02	29.849 
20:35	56.5	56.5	56.5	93	54.5	0	1	248	0.01	29.849 
20:40	56.5	56.5	56.5	93	54.5	0	0	---	0.02	29.849 
20:45	56.5	56.5	56.5	93	54.5	0	1	248	0.02	29.839 
20:50	56.5	56.5	56.5	93	54.5	0	2	248	0.02	29.839 
20:55	56.5	56.5	56.5	94	54.8	0	2	248	0.01	29.839 
21:00	56.3	56.3	56.3	94	54.6	1	3	248	0.01	29.824 
21:05	56.3	56.3	56.3	94	54.6	1	3	248	0.01	29.824 
21:10	56.2	56.2	56.2	94	54.5	0	1	248	0.01	29.824 
21:15	56.2	56.2	56.2	94	54.5	0	3	248	0.01	29.822 
21:20	56.2	56.2	56.2	94	54.5	0	3	248	0.02	29.822 
21:25	56.0	56.0	56.0	94	54.3	1	3	248	0.00	29.822 
21:30	56.0	56.0	56.0	94	54.3	1	4	112	0.00	29.813 
21:35	56.0	56.0	56.0	94	54.3	0	2	112	0.00	29.813 
21:40	55.9	55.9	55.9	95	54.5	0	1	112	0.01	29.813 
21:45	55.9	55.9	55.9	95	54.5	1	3	112	0.00	29.814 
21:50	55.9	55.9	55.9	95	54.5	0	1	112	0.00	29.814 
21:55	55.9	55.9	55.9	95	54.5	0	2	112	0.01	29.814 
22:00	55.9	55.9	55.9	95	54.5	1	3	112	0.01	29.804 
22:05	55.7	55.7	55.7	95	54.3	0	1	112	0.02	29.804 
22:10	55.7	55.7	55.7	95	54.3	1	3	112	0.01	29.804 
22:15	55.9	55.9	55.9	95	54.5	1	3	135	0.01	29.804 
22:20	55.9	55.9	55.9	95	54.5	1	3	135	0.01	29.804 
22:25	55.9	55.9	55.9	95	54.5	1	3	135	0.01	29.804 
22:30	55.9	55.9	55.9	95	54.5	0	3	135	0.01	29.799 
22:35	56.0	56.0	56.0	95	54.6	1	2	135	0.01	29.799 
22:40	56.0	56.0	56.0	95	54.6	1	3	135	0.01	29.799 
22:45	56.0	56.0	56.0	95	54.6	1	4	112	0.01	29.785 
22:50	56.2	56.2	56.2	95	54.8	1	3	90	0.01	29.785 
22:55	56.2	56.2	56.2	95	54.8	1	4	112	0.01	29.785 
23:00	56.2	56.2	56.2	95	54.8	1	3	112	0.00	29.783 
23:05	56.2	56.2	56.2	96	55.1	1	4	112	0.00	29.783 
23:10	56.3	56.3	56.3	96	55.2	1	4	135	0.01	29.783 
23:15	56.3	56.3	56.3	96	55.2	1	3	135	0.01	29.779 
23:20	56.3	56.3	56.3	96	55.2	1	3	112	0.01	29.779 
23:25	56.3	56.3	56.3	96	55.2	1	4	112	0.01	29.779 
23:30	56.3	56.3	56.3	95	54.9	1	4	112	0.01	29.766 
23:35	56.3	56.3	56.3	96	55.2	1	6	68	0.01	29.766 
23:40	56.3	56.3	56.3	95	54.9	1	4	68	0.01	29.766 
23:45	56.3	56.3	56.3	95	54.9	1	3	315	0.00	29.768 
23:50	56.5	56.5	56.5	95	55.1	2	3	315	0.01	29.768 
23:55	56.5	56.5	56.5	95	55.1	1	3	315	0.01	29.768 

CoCoRaHS
IN-AL-39
A2 Web Hosting
Creative Commons License
GoDaddy
search engine by freefind advanced

loaded 2018-11-13 17:07:37 • last modified 2010-11-18 10:43:29
Privacy PolicyDisclaimer
• wx.awcolley.com is powered by PmWiki v.2002016 •
• all content (unless otherwise noted) © 2018 A W Colley